createdAt,value
2019-04-16T00:01:48.808Z,99.90
2019-04-16T00:04:43.112Z,99.90
2019-04-16T00:07:31.376Z,99.90
2019-04-16T00:10:21.752Z,99.90
2019-04-16T00:13:09.600Z,99.90
2019-04-16T00:15:40.996Z,99.90
2019-04-16T00:18:08.911Z,99.90
2019-04-16T00:20:45.700Z,99.90
2019-04-16T00:23:22.563Z,99.90
2019-04-16T00:25:52.034Z,99.90
2019-04-16T00:28:20.744Z,99.90
2019-04-16T00:30:49.054Z,99.90
2019-04-16T00:33:17.304Z,99.90
2019-04-16T00:35:46.577Z,99.90
2019-04-16T00:38:15.107Z,99.90
2019-04-16T00:40:43.220Z,99.90
2019-04-16T00:43:11.557Z,99.90
2019-04-16T00:45:39.542Z,99.90
2019-04-16T00:48:08.192Z,99.90
2019-04-16T00:50:36.239Z,99.90
2019-04-16T00:53:07.610Z,99.90
2019-04-16T00:55:36.140Z,99.90
2019-04-16T00:58:04.740Z,99.90
2019-04-16T01:00:33.818Z,99.90
2019-04-16T01:03:02.649Z,99.90
2019-04-16T01:05:35.097Z,99.90
2019-04-16T01:08:02.862Z,99.90
2019-04-16T01:10:32.220Z,99.90
2019-04-16T01:13:00.696Z,99.90
2019-04-16T01:15:32.156Z,99.90
2019-04-16T01:18:01.136Z,99.90
2019-04-16T01:20:29.616Z,99.90
2019-04-16T01:22:57.782Z,99.90
2019-04-16T01:25:46.811Z,99.90
2019-04-16T01:28:17.983Z,99.90
2019-04-16T01:31:07.916Z,99.90
2019-04-16T01:34:00.762Z,99.90
2019-04-16T01:36:47.231Z,99.90
2019-04-16T01:39:18.349Z,99.90
2019-04-16T01:41:46.882Z,99.90
2019-04-16T01:44:15.432Z,99.90
2019-04-16T01:46:43.687Z,99.90
2019-04-16T01:49:12.060Z,99.90
2019-04-16T01:51:40.119Z,99.90
2019-04-16T01:54:10.464Z,99.90
2019-04-16T01:56:38.942Z,99.90
2019-04-16T01:59:07.342Z,99.90
2019-04-16T02:01:36.123Z,99.90
2019-04-16T02:04:05.179Z,99.90
2019-04-16T02:06:33.795Z,99.90
2019-04-16T02:09:04.531Z,99.90
2019-04-16T02:11:33.091Z,99.90
2019-04-16T02:14:01.183Z,99.90
2019-04-16T02:16:30.371Z,99.90
2019-04-16T02:19:01.340Z,99.90
2019-04-16T02:21:34.139Z,99.90
2019-04-16T02:24:02.194Z,99.90
2019-04-16T02:26:30.618Z,99.90
2019-04-16T02:29:01.020Z,99.90
2019-04-16T02:31:29.607Z,99.90
2019-04-16T02:33:59.136Z,99.90
2019-04-16T02:36:27.698Z,99.90
2019-04-16T02:38:56.921Z,99.90
2019-04-16T02:41:25.327Z,99.90
2019-04-16T02:43:54.493Z,99.90
2019-04-16T02:46:23.088Z,99.90
2019-04-16T02:48:51.839Z,99.90
2019-04-16T02:51:29.224Z,99.90
2019-04-16T02:54:17.014Z,99.90
2019-04-16T02:57:05.043Z,99.90
2019-04-16T02:59:36.472Z,99.90
2019-04-16T03:02:27.098Z,99.90
2019-04-16T03:05:14.812Z,99.90
2019-04-16T03:07:44.077Z,99.90
2019-04-16T03:10:13.882Z,99.90
2019-04-16T03:12:42.302Z,99.90
2019-04-16T03:15:11.280Z,99.90
2019-04-16T03:17:43.762Z,99.90
2019-04-16T03:20:12.951Z,99.90
2019-04-16T03:22:41.726Z,99.90
2019-04-16T03:25:13.566Z,99.90
2019-04-16T03:27:41.008Z,99.90
2019-04-16T03:30:09.390Z,99.90
2019-04-16T03:32:49.471Z,99.90
2019-04-16T03:35:17.854Z,99.90
2019-04-16T03:37:46.771Z,99.90
2019-04-16T03:40:17.983Z,99.90
2019-04-16T03:42:45.559Z,99.90
2019-04-16T03:45:14.106Z,99.90
2019-04-16T03:47:42.797Z,99.90
2019-04-16T03:50:11.126Z,99.90
2019-04-16T03:52:40.862Z,99.90
2019-04-16T03:55:09.983Z,99.90
2019-04-16T03:57:38.153Z,99.90
2019-04-16T04:00:12.441Z,99.90
2019-04-16T04:02:39.165Z,99.90
2019-04-16T04:05:07.838Z,99.90
2019-04-16T04:07:36.781Z,99.90
2019-04-16T04:10:06.903Z,99.90
2019-04-16T04:12:35.380Z,99.90
2019-04-16T04:15:04.399Z,99.90
2019-04-16T04:17:35.652Z,99.90
2019-04-16T04:20:05.207Z,99.90
2019-04-16T04:22:33.692Z,99.90
2019-04-16T04:25:04.385Z,99.90
2019-04-16T04:27:32.594Z,99.90
2019-04-16T04:30:00.953Z,99.90
2019-04-16T04:32:32.520Z,99.90
2019-04-16T04:35:00.493Z,99.90
2019-04-16T04:37:31.358Z,99.90
2019-04-16T04:40:00.505Z,99.90
2019-04-16T04:42:29.068Z,99.90
2019-04-16T04:44:57.193Z,99.90
2019-04-16T04:47:25.436Z,99.90
2019-04-16T04:49:53.766Z,99.90
2019-04-16T04:52:22.441Z,99.90
2019-04-16T04:54:53.801Z,99.90
2019-04-16T04:57:22.302Z,99.90
2019-04-16T04:59:51.538Z,99.90
2019-04-16T05:02:21.960Z,99.90
2019-04-16T05:05:00.149Z,99.90
2019-04-16T05:07:29.340Z,99.90
2019-04-16T05:09:57.566Z,99.90
2019-04-16T05:12:26.252Z,99.90
2019-04-16T05:14:58.631Z,99.90
2019-04-16T05:17:28.487Z,99.90
2019-04-16T05:19:58.029Z,99.90
2019-04-16T05:22:26.674Z,99.90
2019-04-16T05:25:00.854Z,99.90
2019-04-16T05:27:25.416Z,99.90
2019-04-16T05:29:54.185Z,99.90
2019-04-16T05:32:25.878Z,99.90
2019-04-16T05:35:18.016Z,99.90
2019-04-16T05:37:48.592Z,99.90
2019-04-16T05:40:17.190Z,99.90
2019-04-16T05:42:46.487Z,99.90
2019-04-16T05:45:17.192Z,99.90
2019-04-16T05:47:48.712Z,99.90
2019-04-16T05:50:16.114Z,99.90
2019-04-16T05:52:47.508Z,99.90
2019-04-16T05:55:41.393Z,99.90
2019-04-16T05:58:11.413Z,99.90
2019-04-16T06:00:47.257Z,99.90
2019-04-16T06:03:20.455Z,99.90
2019-04-16T06:05:45.858Z,99.90
2019-04-16T06:08:14.496Z,99.90
2019-04-16T06:10:42.547Z,99.90
2019-04-16T06:13:28.971Z,99.90
2019-04-16T06:16:23.955Z,99.90
2019-04-16T06:19:08.515Z,99.90
2019-04-16T06:21:56.650Z,99.90
2019-04-16T06:24:45.060Z,99.90
2019-04-16T06:27:27.200Z,99.90
2019-04-16T06:30:18.954Z,99.90
2019-04-16T06:32:55.075Z,99.90
2019-04-16T06:35:48.840Z,99.90
2019-04-16T06:38:22.486Z,99.90
2019-04-16T06:41:03.354Z,99.90
2019-04-16T06:43:38.948Z,99.90
2019-04-16T06:46:22.010Z,99.90
2019-04-16T06:49:17.690Z,99.90
2019-04-16T06:52:22.608Z,99.10
2019-04-16T06:55:19.229Z,93.60
2019-04-16T06:58:07.288Z,85.80
2019-04-16T07:01:10.831Z,83.40
2019-04-16T07:04:01.525Z,77.30
2019-04-16T07:07:01.078Z,74.20
2019-04-16T07:09:41.462Z,74.70
2019-04-16T07:12:11.725Z,78.00
2019-04-16T07:14:40.771Z,77.80
2019-04-16T07:17:09.413Z,72.40
2019-04-16T07:19:39.454Z,71.20
2019-04-16T07:22:08.080Z,73.80
2019-04-16T07:24:37.774Z,71.10
2019-04-16T07:27:07.868Z,70.20
2019-04-16T07:29:46.417Z,70.80
2019-04-16T07:32:40.867Z,73.90
2019-04-16T07:35:43.886Z,71.80
2019-04-16T07:38:38.165Z,71.20
2019-04-16T07:41:24.758Z,68.20
2019-04-16T07:44:11.554Z,67.90
2019-04-16T07:47:04.804Z,67.30
2019-04-16T07:49:38.310Z,66.90
2019-04-16T07:52:32.451Z,66.50
2019-04-16T07:55:15.549Z,63.40
2019-04-16T07:57:44.238Z,64.90
2019-04-16T08:00:14.404Z,63.40
2019-04-16T08:02:44.320Z,64.10
2019-04-16T08:05:13.096Z,61.50
2019-04-16T08:07:42.634Z,59.50
2019-04-16T08:10:10.796Z,58.30
2019-04-16T08:12:42.203Z,55.40
2019-04-16T08:15:14.588Z,54.40
2019-04-16T08:17:42.213Z,54.00
2019-04-16T08:20:10.822Z,54.10
2019-04-16T08:22:40.070Z,53.70
2019-04-16T08:25:08.912Z,56.40
2019-04-16T08:27:38.211Z,54.40
2019-04-16T08:30:09.019Z,57.60
2019-04-16T08:32:37.552Z,55.20
2019-04-16T08:35:06.205Z,55.60
2019-04-16T08:37:48.364Z,56.50
2019-04-16T08:40:08.804Z,56.20
2019-04-16T08:42:44.735Z,53.70
2019-04-16T08:45:09.301Z,55.00
2019-04-16T08:47:38.393Z,54.90
2019-04-16T08:50:07.294Z,54.40
2019-04-16T08:52:38.532Z,53.40
2019-04-16T08:55:08.376Z,53.40
2019-04-16T08:57:37.538Z,53.40
2019-04-16T09:00:13.975Z,53.40
2019-04-16T09:02:39.187Z,52.50
2019-04-16T09:05:11.284Z,53.60
2019-04-16T09:07:40.513Z,52.00
2019-04-16T09:10:18.220Z,50.50
2019-04-16T09:12:50.812Z,50.00
2019-04-16T09:15:27.330Z,50.20
2019-04-16T09:18:11.991Z,48.40
2019-04-16T09:20:41.541Z,47.30
2019-04-16T09:23:10.319Z,46.90
2019-04-16T09:26:11.257Z,46.00
2019-04-16T09:28:52.728Z,45.70
2019-04-16T09:31:39.745Z,46.50
2019-04-16T09:34:27.989Z,45.80
2019-04-16T09:37:09.997Z,47.20
2019-04-16T09:40:17.611Z,46.30
2019-04-16T09:42:40.661Z,47.20
2019-04-16T09:45:11.134Z,45.70
2019-04-16T09:47:39.717Z,44.60
2019-04-16T09:50:11.155Z,44.10
2019-04-16T09:52:39.529Z,43.40
2019-04-16T09:55:07.754Z,42.80
2019-04-16T09:57:37.994Z,42.00
2019-04-16T10:00:10.263Z,40.90
2019-04-16T10:02:38.832Z,40.60
2019-04-16T10:05:29.566Z,41.80
2019-04-16T10:07:58.949Z,43.50
2019-04-16T10:10:27.966Z,44.00
2019-04-16T10:12:57.335Z,43.30
2019-04-16T10:15:25.853Z,42.40
2019-04-16T10:17:53.963Z,41.50
2019-04-16T10:20:23.151Z,40.90
2019-04-16T10:22:52.003Z,41.70
2019-04-16T10:25:20.231Z,43.80
2019-04-16T10:27:53.962Z,42.40
2019-04-16T10:30:30.275Z,41.70
2019-04-16T10:32:58.582Z,40.10
2019-04-16T10:35:27.088Z,41.00
2019-04-16T10:37:56.362Z,42.50
2019-04-16T10:40:37.088Z,43.70
2019-04-16T10:43:25.337Z,42.80
2019-04-16T10:46:12.571Z,43.60
2019-04-16T10:48:55.793Z,42.60
2019-04-16T10:51:31.511Z,41.90
2019-04-16T10:54:25.277Z,41.40
2019-04-16T10:57:24.856Z,41.80
2019-04-16T11:00:11.426Z,43.50
2019-04-16T11:02:46.379Z,44.40
2019-04-16T11:05:27.764Z,45.90
2019-04-16T11:07:56.621Z,45.70
2019-04-16T11:10:24.718Z,45.10
2019-04-16T11:12:53.581Z,45.20
2019-04-16T11:15:24.241Z,46.10
2019-04-16T11:17:52.446Z,45.80
2019-04-16T11:20:21.079Z,46.40
2019-04-16T11:22:51.280Z,49.10
2019-04-16T11:25:20.164Z,49.80
2019-04-16T11:27:48.423Z,51.30
2019-04-16T11:30:35.552Z,51.70
2019-04-16T11:33:06.102Z,54.00
2019-04-16T11:35:35.177Z,53.00
2019-04-16T11:38:04.869Z,53.50
2019-04-16T11:40:33.623Z,54.40
2019-04-16T11:43:02.074Z,55.60
2019-04-16T11:45:30.840Z,54.30
2019-04-16T11:47:58.935Z,54.20
2019-04-16T11:50:27.985Z,55.30
2019-04-16T11:52:58.541Z,55.10
2019-04-16T11:55:27.083Z,54.70
2019-04-16T11:57:55.612Z,57.20
2019-04-16T12:00:43.987Z,57.90
2019-04-16T12:03:36.729Z,56.80
2019-04-16T12:06:28.450Z,58.00
2019-04-16T12:09:22.235Z,57.40
2019-04-16T12:11:54.015Z,56.60
2019-04-16T12:14:53.502Z,56.90
2019-04-16T12:17:45.637Z,56.80
2019-04-16T12:20:31.908Z,58.30
2019-04-16T12:23:20.859Z,58.30
2019-04-16T12:26:12.416Z,58.10
2019-04-16T12:29:07.221Z,58.50
2019-04-16T12:31:54.288Z,57.10
2019-04-16T12:34:33.438Z,56.70
2019-04-16T12:37:22.281Z,57.90
2019-04-16T12:40:09.623Z,59.20
2019-04-16T12:43:02.285Z,59.50
2019-04-16T12:45:53.407Z,58.70
2019-04-16T12:48:37.012Z,59.10
2019-04-16T12:51:12.849Z,60.10
2019-04-16T12:53:53.412Z,61.70
2019-04-16T12:56:41.353Z,62.70
2019-04-16T12:59:23.200Z,63.10
2019-04-16T13:02:13.933Z,64.10
2019-04-16T13:05:05.268Z,63.50
2019-04-16T13:07:42.571Z,62.90
2019-04-16T13:10:14.999Z,64.70
2019-04-16T13:13:03.097Z,64.70
2019-04-16T13:16:06.298Z,64.90
2019-04-16T13:18:51.816Z,65.40
2019-04-16T13:21:35.668Z,70.10
2019-04-16T13:24:14.728Z,72.00
2019-04-16T13:26:50.263Z,75.60
2019-04-16T13:29:21.474Z,80.00
2019-04-16T13:31:50.558Z,83.40
2019-04-16T13:34:19.543Z,85.50
2019-04-16T13:36:51.487Z,85.60
2019-04-16T13:39:26.101Z,89.70
2019-04-16T13:41:55.109Z,91.10
2019-04-16T13:44:26.016Z,91.40
2019-04-16T13:46:54.837Z,88.40
2019-04-16T13:49:34.354Z,85.60
2019-04-16T13:52:02.533Z,84.90
2019-04-16T13:54:53.726Z,85.80
2019-04-16T13:57:23.627Z,82.60
2019-04-16T14:00:05.477Z,81.30
2019-04-16T14:03:02.121Z,82.30
2019-04-16T14:05:30.615Z,84.70
2019-04-16T14:07:59.266Z,82.10
2019-04-16T14:10:27.899Z,82.80
2019-04-16T14:12:56.440Z,80.10
2019-04-16T14:15:32.155Z,80.20
2019-04-16T14:18:00.344Z,78.50
2019-04-16T14:20:28.791Z,81.20
2019-04-16T14:22:57.193Z,82.80
2019-04-16T14:25:25.474Z,81.20
2019-04-16T14:28:02.068Z,79.70
2019-04-16T14:30:31.790Z,79.60
2019-04-16T14:33:00.538Z,78.10
2019-04-16T14:35:34.007Z,76.50
2019-04-16T14:38:02.518Z,77.60
2019-04-16T14:40:31.374Z,77.30
2019-04-16T14:43:00.129Z,77.60
2019-04-16T14:45:59.797Z,76.80
2019-04-16T14:48:27.191Z,76.60
2019-04-16T14:50:55.987Z,77.20
2019-04-16T14:53:53.399Z,76.40
2019-04-16T14:56:34.868Z,78.10
2019-04-16T14:59:11.149Z,78.00
2019-04-16T15:01:54.494Z,75.80
2019-04-16T15:04:35.183Z,76.40
2019-04-16T15:07:22.320Z,77.20
2019-04-16T15:10:01.805Z,77.80
2019-04-16T15:12:59.962Z,78.50
2019-04-16T15:15:40.410Z,79.50
2019-04-16T15:18:31.072Z,79.00
2019-04-16T15:21:17.481Z,81.30
2019-04-16T15:24:05.450Z,81.40
2019-04-16T15:27:02.710Z,81.30
2019-04-16T15:29:56.642Z,85.10
2019-04-16T15:32:46.394Z,85.10
2019-04-16T15:35:20.310Z,84.80
2019-04-16T15:38:01.450Z,84.80
2019-04-16T15:40:33.222Z,86.40
2019-04-16T15:43:20.642Z,85.20
2019-04-16T15:46:26.462Z,88.00
2019-04-16T15:49:23.350Z,89.40
2019-04-16T15:52:10.492Z,90.30
2019-04-16T15:54:57.820Z,91.10
2019-04-16T15:57:38.715Z,91.70
2019-04-16T16:00:14.705Z,90.70
2019-04-16T16:03:14.251Z,91.70
2019-04-16T16:05:55.979Z,93.00
2019-04-16T16:08:30.463Z,99.90
2019-04-16T16:11:02.023Z,99.90
2019-04-16T16:13:30.622Z,99.90
2019-04-16T16:15:58.812Z,99.90
2019-04-16T16:18:29.292Z,99.90
2019-04-16T16:20:57.921Z,99.90
2019-04-16T16:23:32.739Z,99.90
2019-04-16T16:25:58.984Z,99.90
2019-04-16T16:28:27.917Z,99.90
2019-04-16T16:30:56.846Z,99.90
2019-04-16T16:33:25.191Z,99.90
2019-04-16T16:35:58.510Z,99.90
2019-04-16T16:38:23.630Z,99.90
2019-04-16T16:40:52.666Z,99.90
2019-04-16T16:43:21.499Z,99.90
2019-04-16T16:46:00.320Z,99.90
2019-04-16T16:48:28.585Z,99.90
2019-04-16T16:50:57.902Z,99.90
2019-04-16T16:53:34.307Z,99.90
2019-04-16T16:56:13.627Z,99.90
2019-04-16T16:58:59.032Z,99.90
2019-04-16T17:01:34.775Z,99.90
2019-04-16T17:04:05.272Z,99.90
2019-04-16T17:06:34.035Z,99.90
2019-04-16T17:09:02.191Z,99.90
2019-04-16T17:11:31.237Z,99.90
2019-04-16T17:14:02.249Z,99.90
2019-04-16T17:16:29.363Z,99.90
2019-04-16T17:18:57.554Z,99.90
2019-04-16T17:21:26.581Z,99.90
2019-04-16T17:23:55.027Z,99.90
2019-04-16T17:26:23.999Z,99.90
2019-04-16T17:28:52.561Z,99.90
2019-04-16T17:31:20.716Z,99.90
2019-04-16T17:33:49.158Z,99.90
2019-04-16T17:36:17.306Z,99.90
2019-04-16T17:38:45.727Z,99.90
2019-04-16T17:41:18.659Z,99.90
2019-04-16T17:44:07.219Z,99.90
2019-04-16T17:47:30.551Z,99.90
2019-04-16T17:49:51.442Z,99.90
2019-04-16T17:52:24.364Z,99.90
2019-04-16T17:55:02.023Z,99.90
2019-04-16T17:57:51.858Z,99.90
2019-04-16T18:00:42.687Z,99.90
2019-04-16T18:03:37.660Z,99.90
2019-04-16T18:06:22.977Z,99.90
2019-04-16T18:09:10.201Z,99.90
2019-04-16T18:12:00.978Z,99.90
2019-04-16T18:14:38.819Z,99.90
2019-04-16T18:17:15.378Z,99.90
2019-04-16T18:20:02.061Z,99.90
2019-04-16T18:23:01.983Z,99.90
2019-04-16T18:25:56.760Z,99.90
2019-04-16T18:28:26.759Z,99.90
2019-04-16T18:31:04.851Z,99.90
2019-04-16T18:33:41.227Z,99.90
2019-04-16T18:36:33.250Z,99.90
2019-04-16T18:39:38.198Z,99.90
2019-04-16T18:42:21.360Z,99.90
2019-04-16T18:45:11.099Z,99.90
2019-04-16T18:48:01.543Z,99.90
2019-04-16T18:50:24.596Z,99.90
2019-04-16T18:52:53.919Z,99.90
2019-04-16T18:55:22.101Z,99.90
2019-04-16T18:57:52.363Z,99.90
2019-04-16T19:00:33.159Z,99.90
2019-04-16T19:03:04.654Z,99.90
2019-04-16T19:05:33.125Z,99.90
2019-04-16T19:08:02.085Z,99.90
2019-04-16T19:10:31.738Z,99.90
2019-04-16T19:13:00.685Z,99.90
2019-04-16T19:15:29.337Z,99.90
2019-04-16T19:17:57.894Z,99.90
2019-04-16T19:20:27.683Z,99.90
2019-04-16T19:22:56.611Z,99.90
2019-04-16T19:25:25.163Z,99.90
2019-04-16T19:27:54.284Z,99.90
2019-04-16T19:30:23.010Z,99.90
2019-04-16T19:32:51.795Z,99.90
2019-04-16T19:35:24.144Z,99.90
2019-04-16T19:37:52.900Z,99.90
2019-04-16T19:40:21.739Z,99.90
2019-04-16T19:42:50.113Z,99.90
2019-04-16T19:45:18.285Z,99.90
2019-04-16T19:47:47.116Z,99.90
2019-04-16T19:50:15.304Z,99.90
2019-04-16T19:52:45.718Z,99.90
2019-04-16T19:55:14.627Z,99.90
2019-04-16T19:57:45.299Z,99.90
2019-04-16T20:00:14.425Z,99.90
2019-04-16T20:02:42.545Z,99.90
2019-04-16T20:05:12.272Z,99.90
2019-04-16T20:07:42.469Z,99.90
2019-04-16T20:10:11.490Z,99.90
2019-04-16T20:12:39.858Z,99.90
2019-04-16T20:15:09.662Z,99.90
2019-04-16T20:17:38.634Z,99.90
2019-04-16T20:20:07.682Z,99.90
2019-04-16T20:22:36.639Z,99.90
2019-04-16T20:25:06.550Z,99.90
2019-04-16T20:27:36.272Z,99.90
2019-04-16T20:30:06.351Z,99.90
2019-04-16T20:32:35.289Z,99.90
2019-04-16T20:35:03.836Z,99.90
2019-04-16T20:37:32.936Z,99.90
2019-04-16T20:40:03.982Z,99.90
2019-04-16T20:42:35.369Z,99.90
2019-04-16T20:45:05.054Z,99.90
2019-04-16T20:47:39.963Z,99.90
2019-04-16T20:50:07.753Z,99.90
2019-04-16T20:52:37.291Z,99.90
2019-04-16T20:55:07.416Z,99.90
2019-04-16T20:57:38.957Z,99.90
2019-04-16T21:00:10.911Z,99.90
2019-04-16T21:02:38.201Z,99.90
2019-04-16T21:05:20.827Z,99.90
2019-04-16T21:07:36.802Z,99.90
2019-04-16T21:10:06.000Z,99.90
2019-04-16T21:12:34.301Z,99.90
2019-04-16T21:15:04.207Z,99.90
2019-04-16T21:17:32.753Z,99.90
2019-04-16T21:20:01.194Z,99.90
2019-04-16T21:22:31.324Z,99.90
2019-04-16T21:24:59.606Z,99.90
2019-04-16T21:27:29.026Z,99.90
2019-04-16T21:29:57.799Z,99.90
2019-04-16T21:33:00.719Z,99.90
2019-04-16T21:35:40.469Z,99.90
2019-04-16T21:38:31.548Z,99.90
2019-04-16T21:41:00.442Z,99.90
2019-04-16T21:43:29.948Z,99.90
2019-04-16T21:45:58.325Z,99.90
2019-04-16T21:48:27.806Z,99.90
2019-04-16T21:50:56.721Z,99.90
2019-04-16T21:53:27.955Z,99.90
2019-04-16T21:55:55.521Z,99.90
2019-04-16T21:58:24.253Z,99.90
2019-04-16T22:01:16.050Z,99.90
2019-04-16T22:03:48.417Z,99.90
2019-04-16T22:06:19.885Z,99.90
2019-04-16T22:08:47.282Z,99.90
2019-04-16T22:11:16.817Z,99.90
2019-04-16T22:13:50.417Z,99.90
2019-04-16T22:16:17.048Z,99.90
2019-04-16T22:18:45.570Z,99.90
2019-04-16T22:21:13.794Z,99.90
2019-04-16T22:23:42.308Z,99.90
2019-04-16T22:26:11.133Z,99.90
2019-04-16T22:28:44.138Z,99.90
2019-04-16T22:31:10.596Z,99.90
2019-04-16T22:33:41.928Z,99.90
2019-04-16T22:36:10.024Z,99.90
2019-04-16T22:38:41.141Z,99.90
2019-04-16T22:41:29.254Z,99.90
2019-04-16T22:44:16.492Z,99.90
2019-04-16T22:46:58.190Z,99.90
2019-04-16T22:49:26.863Z,99.90
2019-04-16T22:51:55.038Z,99.90
2019-04-16T22:54:23.828Z,99.90
2019-04-16T22:57:04.094Z,99.90
2019-04-16T22:59:32.766Z,99.90
2019-04-16T23:02:02.142Z,99.90
2019-04-16T23:04:31.451Z,99.90
2019-04-16T23:06:59.952Z,99.90
2019-04-16T23:09:30.118Z,99.90
2019-04-16T23:11:58.564Z,99.90
2019-04-16T23:14:27.149Z,99.90
2019-04-16T23:16:56.020Z,99.90
2019-04-16T23:19:24.290Z,99.90
2019-04-16T23:21:52.651Z,99.90
2019-04-16T23:24:23.393Z,99.90
2019-04-16T23:26:51.504Z,99.90
2019-04-16T23:29:20.107Z,99.90
2019-04-16T23:31:48.436Z,99.90
2019-04-16T23:34:17.258Z,99.90
2019-04-16T23:36:48.703Z,99.90
2019-04-16T23:39:16.298Z,99.90
2019-04-16T23:41:47.932Z,99.90
2019-04-16T23:44:33.650Z,99.90
2019-04-16T23:47:21.750Z,99.90
2019-04-16T23:50:02.716Z,99.90
2019-04-16T23:52:35.336Z,99.90
2019-04-16T23:55:27.603Z,99.90
2019-04-16T23:58:13.431Z,99.90
